createdAt,value
2017-06-15T00:00:11.476Z,0
2017-06-15T00:00:52.366Z,0
2017-06-15T00:01:33.281Z,0
2017-06-15T00:02:14.176Z,0
2017-06-15T00:02:55.065Z,0
2017-06-15T00:03:35.945Z,0
2017-06-15T00:04:16.850Z,0
2017-06-15T00:04:57.734Z,0
2017-06-15T00:05:38.646Z,0
2017-06-15T00:06:19.539Z,0
2017-06-15T00:07:00.428Z,0
2017-06-15T00:07:41.322Z,0
2017-06-15T00:08:22.226Z,0
2017-06-15T00:09:03.108Z,0
2017-06-15T00:09:44.003Z,0
2017-06-15T00:10:24.887Z,0
2017-06-15T00:11:05.775Z,0
2017-06-15T00:11:46.674Z,0
2017-06-15T00:12:27.567Z,0
2017-06-15T00:13:08.457Z,0
2017-06-15T00:13:49.370Z,0
2017-06-15T00:14:30.256Z,0
2017-06-15T00:15:11.153Z,0
2017-06-15T00:15:52.044Z,0
2017-06-15T00:16:32.928Z,0
2017-06-15T00:17:13.815Z,0
2017-06-15T00:17:54.706Z,0
2017-06-15T00:18:35.609Z,0
2017-06-15T00:19:16.503Z,0
2017-06-15T00:19:57.399Z,0
2017-06-15T00:20:38.287Z,0
2017-06-15T00:21:19.186Z,0
2017-06-15T00:22:00.075Z,0
2017-06-15T00:22:40.970Z,0
2017-06-15T00:23:21.851Z,0
2017-06-15T00:24:02.750Z,0
2017-06-15T00:24:43.641Z,0
2017-06-15T00:25:24.536Z,0
2017-06-15T00:26:05.430Z,0
2017-06-15T00:26:46.323Z,0
2017-06-15T00:27:27.212Z,0
2017-06-15T00:28:08.099Z,0
2017-06-15T00:28:48.985Z,0
2017-06-15T00:29:29.878Z,0
2017-06-15T00:30:10.782Z,0
2017-06-15T00:30:51.670Z,0
2017-06-15T00:31:32.570Z,0
2017-06-15T00:32:13.452Z,0
2017-06-15T00:32:54.340Z,0
2017-06-15T00:33:35.230Z,0
2017-06-15T00:34:16.115Z,0
2017-06-15T00:34:57.026Z,0
2017-06-15T00:35:37.915Z,0
2017-06-15T00:36:18.792Z,0
2017-06-15T00:36:59.681Z,0
2017-06-15T00:37:40.578Z,0
2017-06-15T00:38:21.466Z,0
2017-06-15T00:39:02.367Z,0
2017-06-15T00:39:43.266Z,0
2017-06-15T00:40:24.155Z,0
2017-06-15T00:41:05.080Z,0
2017-06-15T00:41:45.932Z,0
2017-06-15T00:42:26.828Z,0
2017-06-15T00:43:07.716Z,0
2017-06-15T00:43:48.608Z,0
2017-06-15T00:44:29.508Z,0
2017-06-15T00:45:10.400Z,0
2017-06-15T00:45:51.299Z,0
2017-06-15T00:46:32.190Z,0
2017-06-15T00:47:13.073Z,0
2017-06-15T00:47:53.969Z,0
2017-06-15T00:48:34.859Z,0
2017-06-15T00:49:15.745Z,0
2017-06-15T00:49:56.653Z,0
2017-06-15T00:50:37.540Z,0
2017-06-15T00:51:18.429Z,0
2017-06-15T00:51:59.316Z,0
2017-06-15T00:52:40.209Z,0
2017-06-15T00:53:21.113Z,0
2017-06-15T00:54:02.008Z,0
2017-06-15T00:54:42.888Z,0
2017-06-15T00:55:23.776Z,0
2017-06-15T00:56:04.680Z,0
2017-06-15T00:56:45.551Z,0
2017-06-15T00:57:26.451Z,0
2017-06-15T00:58:07.343Z,0
2017-06-15T00:58:48.250Z,0
2017-06-15T00:59:29.122Z,0
2017-06-15T01:00:10.017Z,0
2017-06-15T01:00:50.905Z,0
2017-06-15T01:01:31.775Z,0
2017-06-15T01:02:12.668Z,0
2017-06-15T01:02:53.562Z,0
2017-06-15T01:03:34.452Z,0
2017-06-15T01:04:15.371Z,0
2017-06-15T01:04:56.265Z,0
2017-06-15T01:05:37.136Z,0
2017-06-15T01:06:18.022Z,0
2017-06-15T01:06:58.915Z,0
2017-06-15T01:07:39.809Z,0
2017-06-15T01:08:20.697Z,0
2017-06-15T01:09:01.591Z,0
2017-06-15T01:09:42.465Z,0
2017-06-15T01:10:23.344Z,0
2017-06-15T01:11:04.247Z,0
2017-06-15T01:11:45.140Z,0
2017-06-15T01:12:26.024Z,0
2017-06-15T01:13:06.926Z,0
2017-06-15T01:13:47.843Z,0
2017-06-15T01:14:28.724Z,0
2017-06-15T01:15:09.625Z,0
2017-06-15T01:15:50.511Z,0
2017-06-15T01:16:31.394Z,0
2017-06-15T01:17:12.300Z,0
2017-06-15T01:17:53.190Z,0
2017-06-15T01:18:34.073Z,0
2017-06-15T01:19:14.973Z,0
2017-06-15T01:19:55.860Z,0
2017-06-15T01:20:36.747Z,0
2017-06-15T01:21:17.653Z,0
2017-06-15T01:21:58.537Z,0
2017-06-15T01:22:39.422Z,0
2017-06-15T01:23:20.322Z,0
2017-06-15T01:24:01.197Z,0
2017-06-15T01:24:42.080Z,0
2017-06-15T01:25:22.973Z,0
2017-06-15T01:26:03.865Z,0
2017-06-15T01:26:44.742Z,0
2017-06-15T01:27:25.640Z,0
2017-06-15T01:28:06.534Z,0
2017-06-15T01:28:47.425Z,0
2017-06-15T01:29:28.307Z,0
2017-06-15T01:30:09.203Z,0
2017-06-15T01:30:50.084Z,0
2017-06-15T01:31:30.965Z,0
2017-06-15T01:32:11.881Z,0
2017-06-15T01:32:52.760Z,0
2017-06-15T01:33:33.643Z,0
2017-06-15T01:34:14.534Z,0
2017-06-15T01:34:55.439Z,0
2017-06-15T01:35:36.313Z,0
2017-06-15T01:36:17.211Z,0
2017-06-15T01:36:58.095Z,0
2017-06-15T01:37:38.978Z,0
2017-06-15T01:38:19.864Z,0
2017-06-15T01:39:00.770Z,0
2017-06-15T01:39:41.654Z,0
2017-06-15T01:40:22.547Z,0
2017-06-15T01:41:03.441Z,0
2017-06-15T01:41:44.309Z,0
2017-06-15T01:42:25.188Z,0
2017-06-15T01:43:06.088Z,0
2017-06-15T01:43:46.982Z,0
2017-06-15T01:44:27.872Z,0
2017-06-15T01:45:08.777Z,0
2017-06-15T01:45:49.676Z,0
2017-06-15T01:46:30.572Z,0
2017-06-15T01:47:11.476Z,0
2017-06-15T01:47:52.369Z,0
2017-06-15T01:48:33.271Z,0
2017-06-15T01:49:14.169Z,0
2017-06-15T01:49:55.039Z,0
2017-06-15T01:50:35.931Z,0
2017-06-15T01:51:16.824Z,0
2017-06-15T01:51:57.712Z,0
2017-06-15T01:52:38.594Z,0
2017-06-15T01:53:19.500Z,0
2017-06-15T01:54:00.381Z,0
2017-06-15T01:54:41.274Z,0
2017-06-15T01:55:22.177Z,0
2017-06-15T01:56:03.059Z,0
2017-06-15T01:56:43.947Z,0
2017-06-15T01:57:24.844Z,0
2017-06-15T01:58:05.734Z,0
2017-06-15T01:58:46.616Z,4
2017-06-15T01:59:27.513Z,4
2017-06-15T02:00:08.410Z,4
2017-06-15T02:00:49.291Z,4
2017-06-15T02:01:30.187Z,0
2017-06-15T02:02:11.091Z,0
2017-06-15T02:02:51.990Z,0
2017-06-15T02:03:32.882Z,0
2017-06-15T02:04:13.776Z,4
2017-06-15T02:04:54.670Z,4
2017-06-15T02:05:35.559Z,4
2017-06-15T02:06:16.450Z,4
2017-06-15T02:06:57.335Z,4
2017-06-15T02:07:38.235Z,4
2017-06-15T02:08:19.114Z,4
2017-06-15T02:08:59.999Z,4
2017-06-15T02:09:40.910Z,4
2017-06-15T02:10:21.789Z,8
2017-06-15T02:11:02.693Z,4
2017-06-15T02:11:43.585Z,4
2017-06-15T02:12:24.467Z,8
2017-06-15T02:13:05.361Z,8
2017-06-15T02:13:46.265Z,4
2017-06-15T02:14:27.141Z,8
2017-06-15T02:15:08.033Z,8
2017-06-15T02:15:48.942Z,12
2017-06-15T02:16:29.820Z,8
2017-06-15T02:17:10.695Z,12
2017-06-15T02:17:51.574Z,12
2017-06-15T02:18:32.476Z,12
2017-06-15T02:19:13.352Z,12
2017-06-15T02:19:54.250Z,12
2017-06-15T02:20:35.142Z,16
2017-06-15T02:21:16.029Z,12
2017-06-15T02:21:56.937Z,20
2017-06-15T02:22:37.866Z,16
2017-06-15T02:23:18.756Z,20
2017-06-15T02:23:59.643Z,20
2017-06-15T02:24:40.516Z,24
2017-06-15T02:25:21.406Z,24
2017-06-15T02:26:02.290Z,24
2017-06-15T02:26:43.196Z,24
2017-06-15T02:27:24.091Z,28
2017-06-15T02:28:04.970Z,28
2017-06-15T02:28:45.877Z,32
2017-06-15T02:29:26.771Z,36
2017-06-15T02:30:07.647Z,36
2017-06-15T02:30:48.544Z,40
2017-06-15T02:31:29.460Z,40
2017-06-15T02:32:10.346Z,44
2017-06-15T02:32:51.220Z,48
2017-06-15T02:33:32.105Z,48
2017-06-15T02:34:13.003Z,56
2017-06-15T02:34:53.894Z,56
2017-06-15T02:35:34.780Z,60
2017-06-15T02:36:15.684Z,60
2017-06-15T02:36:56.565Z,68
2017-06-15T02:37:37.450Z,68
2017-06-15T02:38:18.324Z,76
2017-06-15T02:38:59.199Z,76
2017-06-15T02:39:40.099Z,84
2017-06-15T02:40:20.989Z,84
2017-06-15T02:41:01.858Z,88
2017-06-15T02:41:42.745Z,96
2017-06-15T02:42:23.665Z,100
2017-06-15T02:43:04.568Z,104
2017-06-15T02:43:45.456Z,108
2017-06-15T02:44:26.340Z,112
2017-06-15T02:45:07.222Z,120
2017-06-15T02:45:48.111Z,124
2017-06-15T02:46:29.000Z,128
2017-06-15T02:47:09.875Z,132
2017-06-15T02:47:50.758Z,140
2017-06-15T02:48:31.653Z,144
2017-06-15T02:49:12.544Z,152
2017-06-15T02:49:53.432Z,156
2017-06-15T02:50:34.320Z,164
2017-06-15T02:51:15.209Z,168
2017-06-15T02:51:56.094Z,176
2017-06-15T02:52:36.971Z,180
2017-06-15T02:53:17.854Z,188
2017-06-15T02:53:58.749Z,196
2017-06-15T02:54:39.631Z,204
2017-06-15T02:55:20.503Z,212
2017-06-15T02:56:01.385Z,216
2017-06-15T02:56:42.269Z,224
2017-06-15T02:57:23.156Z,232
2017-06-15T02:58:04.036Z,236
2017-06-15T02:58:44.916Z,248
2017-06-15T02:59:25.809Z,256
2017-06-15T03:00:06.701Z,264
2017-06-15T03:00:47.594Z,272
2017-06-15T03:01:28.584Z,280
2017-06-15T03:02:09.487Z,284
2017-06-15T03:02:50.710Z,296
2017-06-15T03:03:31.598Z,304
2017-06-15T03:04:12.494Z,316
2017-06-15T03:04:53.403Z,320
2017-06-15T03:05:34.287Z,328
2017-06-15T03:06:15.168Z,336
2017-06-15T03:06:56.049Z,344
2017-06-15T03:07:36.938Z,352
2017-06-15T03:08:17.841Z,360
2017-06-15T03:08:58.726Z,368
2017-06-15T03:09:39.620Z,380
2017-06-15T03:10:20.515Z,388
2017-06-15T03:11:01.397Z,392
2017-06-15T03:11:42.303Z,404
2017-06-15T03:12:23.178Z,408
2017-06-15T03:13:04.086Z,420
2017-06-15T03:13:44.976Z,428
2017-06-15T03:14:25.855Z,436
2017-06-15T03:15:06.742Z,448
2017-06-15T03:15:47.639Z,456
2017-06-15T03:16:28.523Z,464
2017-06-15T03:17:09.476Z,476
2017-06-15T03:17:50.372Z,488
2017-06-15T03:18:31.265Z,496
2017-06-15T03:20:40.287Z,532
2017-06-15T03:21:21.177Z,544
2017-06-15T03:22:02.057Z,560
2017-06-15T03:22:42.929Z,568
2017-06-15T03:23:23.811Z,576
2017-06-15T03:24:04.701Z,588
2017-06-15T03:24:45.582Z,600
2017-06-15T03:25:26.478Z,612
2017-06-15T03:26:07.342Z,624
2017-06-15T03:26:48.242Z,636
2017-06-15T03:27:29.118Z,648
2017-06-15T03:28:09.999Z,660
2017-06-15T03:28:50.909Z,676
2017-06-15T03:29:31.790Z,688
2017-06-15T03:30:12.665Z,700
2017-06-15T03:30:53.552Z,712
2017-06-15T03:31:34.447Z,724
2017-06-15T03:32:15.326Z,736
2017-06-15T03:32:56.221Z,748
2017-06-15T03:33:37.124Z,768
2017-06-15T03:34:18.002Z,780
2017-06-15T03:34:58.884Z,788
2017-06-15T03:35:39.772Z,804
2017-06-15T03:36:20.655Z,808
2017-06-15T03:37:01.536Z,820
2017-06-15T03:37:42.528Z,840
2017-06-15T03:38:23.374Z,852
2017-06-15T03:39:04.267Z,860
2017-06-15T03:39:45.148Z,872
2017-06-15T03:40:26.028Z,888
2017-06-15T03:41:06.909Z,896
2017-06-15T03:41:47.801Z,908
2017-06-15T03:42:28.701Z,924
2017-06-15T03:43:09.578Z,940
2017-06-15T03:43:50.472Z,960
2017-06-15T03:44:31.366Z,992
2017-06-15T03:45:12.258Z,1052
2017-06-15T03:45:53.145Z,1108
2017-06-15T03:46:34.046Z,1160
2017-06-15T03:47:14.943Z,1236
2017-06-15T03:47:55.853Z,1316
2017-06-15T03:48:36.759Z,1352
2017-06-15T03:49:17.686Z,1352
2017-06-15T03:49:58.575Z,1380
2017-06-15T03:50:39.465Z,1416
2017-06-15T03:51:20.354Z,1468
2017-06-15T03:52:01.249Z,1528
2017-06-15T03:52:42.126Z,1568
2017-06-15T03:53:23.030Z,1588
2017-06-15T03:54:03.908Z,1596
2017-06-15T03:54:44.787Z,1584
2017-06-15T03:55:25.705Z,1596
2017-06-15T03:56:06.584Z,1616
2017-06-15T03:56:47.462Z,1632
2017-06-15T03:57:28.384Z,1652
2017-06-15T03:58:09.264Z,1668
2017-06-15T03:58:50.149Z,1656
2017-06-15T03:59:31.057Z,1632
2017-06-15T04:00:11.936Z,1648
2017-06-15T04:00:52.830Z,1664
2017-06-15T04:01:33.727Z,1688
2017-06-15T04:02:14.639Z,1716
2017-06-15T04:02:55.548Z,1776
2017-06-15T04:03:36.435Z,1808
2017-06-15T04:04:17.337Z,1840
2017-06-15T04:04:58.226Z,1860
2017-06-15T04:05:39.105Z,1852
2017-06-15T04:06:20.022Z,1876
2017-06-15T04:07:00.951Z,1904
2017-06-15T04:07:41.838Z,1952
2017-06-15T04:08:22.729Z,1960
2017-06-15T04:09:03.634Z,1952
2017-06-15T04:09:44.532Z,1928
2017-06-15T04:10:25.422Z,1940
2017-06-15T04:11:06.310Z,1952
2017-06-15T04:11:47.208Z,1940
2017-06-15T04:12:28.111Z,1960
2017-06-15T04:13:08.995Z,1988
2017-06-15T04:13:49.887Z,2024
2017-06-15T04:14:30.779Z,2060
2017-06-15T04:15:11.667Z,2112
2017-06-15T04:15:52.568Z,2136
2017-06-15T04:16:33.444Z,2172
2017-06-15T04:17:14.335Z,2200
2017-06-15T04:17:55.234Z,2244
2017-06-15T04:18:36.127Z,2252
2017-06-15T04:19:17.014Z,2288
2017-06-15T04:19:57.920Z,2304
2017-06-15T04:20:38.803Z,2300
2017-06-15T04:21:19.688Z,2316
2017-06-15T04:22:00.595Z,2332
2017-06-15T04:22:41.481Z,2312
2017-06-15T04:23:22.368Z,2300
2017-06-15T04:24:03.278Z,2300
2017-06-15T04:24:44.162Z,2324
2017-06-15T04:25:25.045Z,2380
2017-06-15T04:26:05.947Z,2452
2017-06-15T04:26:46.833Z,2560
2017-06-15T04:27:27.720Z,2656
2017-06-15T04:28:08.615Z,2748
2017-06-15T04:28:49.507Z,2832
2017-06-15T04:29:30.395Z,2892
2017-06-15T04:30:11.295Z,2924
2017-06-15T04:30:52.183Z,2928
2017-06-15T04:31:33.116Z,2896
2017-06-15T04:32:13.960Z,2856
2017-06-15T04:32:54.861Z,2836
2017-06-15T04:33:35.743Z,2800
2017-06-15T04:34:16.652Z,2772
2017-06-15T04:34:57.548Z,2664
2017-06-15T04:35:38.414Z,2644
2017-06-15T04:36:19.319Z,2704
2017-06-15T04:37:00.213Z,2772
2017-06-15T04:37:41.117Z,2884
2017-06-15T04:38:22.016Z,2960
2017-06-15T04:39:02.908Z,2984
2017-06-15T04:39:43.809Z,3040
2017-06-15T04:40:24.701Z,3116
2017-06-15T04:41:05.594Z,3204
2017-06-15T04:41:46.495Z,3260
2017-06-15T04:42:27.376Z,3252
2017-06-15T04:43:08.278Z,3260
2017-06-15T04:43:49.188Z,3212
2017-06-15T04:44:30.067Z,3148
2017-06-15T04:45:10.961Z,3172
2017-06-15T04:45:51.853Z,3316
2017-06-15T04:46:32.803Z,3408
2017-06-15T04:47:13.684Z,3508
2017-06-15T04:47:54.575Z,3612
2017-06-15T04:48:35.479Z,3656
2017-06-15T04:49:16.367Z,3712
2017-06-15T04:49:57.265Z,3752
2017-06-15T04:50:38.164Z,3804
2017-06-15T04:51:19.051Z,3780
2017-06-15T04:51:59.938Z,3672
2017-06-15T04:52:40.835Z,3436
2017-06-15T04:53:21.754Z,3304
2017-06-15T04:54:02.675Z,3268
2017-06-15T04:54:43.538Z,3104
2017-06-15T04:55:24.431Z,3080
2017-06-15T04:56:05.337Z,2912
2017-06-15T04:56:46.212Z,2760
2017-06-15T04:57:27.093Z,2604
2017-06-15T04:58:07.994Z,2492
2017-06-15T04:58:48.891Z,2420
2017-06-15T04:59:29.837Z,2376
2017-06-15T05:00:10.715Z,2332
2017-06-15T05:00:51.622Z,2296
2017-06-15T05:01:32.513Z,2304
2017-06-15T05:02:13.380Z,2312
2017-06-15T05:02:54.261Z,2332
2017-06-15T05:03:35.172Z,2348
2017-06-15T05:04:16.068Z,2372
2017-06-15T05:04:56.951Z,2380
2017-06-15T05:05:37.847Z,2416
2017-06-15T05:06:18.731Z,2452
2017-06-15T05:06:59.619Z,2424
2017-06-15T05:07:40.561Z,2364
2017-06-15T05:08:21.424Z,2444
2017-06-15T05:09:02.321Z,2532
2017-06-15T05:09:43.219Z,2580
2017-06-15T05:10:24.106Z,2612
2017-06-15T05:11:05.020Z,2572
2017-06-15T05:11:45.939Z,2624
2017-06-15T05:12:26.864Z,2636
2017-06-15T05:13:07.740Z,2660
2017-06-15T05:13:48.626Z,2644
2017-06-15T05:14:29.532Z,2736
2017-06-15T05:15:10.530Z,2784
2017-06-15T05:15:51.437Z,2816
2017-06-15T05:16:32.316Z,2860
2017-06-15T05:17:13.255Z,2900
2017-06-15T05:17:54.179Z,2932
2017-06-15T05:18:35.047Z,2968
2017-06-15T05:19:15.951Z,2976
2017-06-15T05:19:56.837Z,2976
2017-06-15T05:20:37.743Z,2952
2017-06-15T05:21:18.634Z,3044
2017-06-15T05:21:59.522Z,2972
2017-06-15T05:22:40.427Z,2980
2017-06-15T05:23:21.305Z,2996
2017-06-15T05:24:02.187Z,3016
2017-06-15T05:24:43.101Z,3048
2017-06-15T05:25:23.989Z,3096
2017-06-15T05:26:04.885Z,3144
2017-06-15T05:26:45.777Z,3060
2017-06-15T05:27:26.664Z,3172
2017-06-15T05:28:07.534Z,3184
2017-06-15T05:28:48.427Z,3192
2017-06-15T05:29:29.322Z,3244
2017-06-15T05:30:10.217Z,3268
2017-06-15T05:30:51.121Z,3316
2017-06-15T05:31:32.010Z,3356
2017-06-15T05:32:12.895Z,3400
2017-06-15T05:32:53.799Z,3452
2017-06-15T05:33:34.688Z,3516
2017-06-15T05:34:15.584Z,3560
2017-06-15T05:34:56.500Z,3636
2017-06-15T05:35:37.387Z,3660
2017-06-15T05:36:18.290Z,3720
2017-06-15T05:36:59.218Z,3728
2017-06-15T05:37:40.196Z,3788
2017-06-15T05:38:21.093Z,3900
2017-06-15T05:39:02.028Z,3984
2017-06-15T05:39:42.915Z,4064
2017-06-15T05:40:23.808Z,4164
2017-06-15T05:41:04.706Z,3880
2017-06-15T05:41:45.601Z,4188
2017-06-15T05:42:26.494Z,4372
2017-06-15T05:43:07.387Z,4460
2017-06-15T05:43:48.276Z,4584
2017-06-15T05:44:29.167Z,4720
2017-06-15T05:45:10.070Z,4872
2017-06-15T05:45:50.977Z,4984
2017-06-15T05:46:31.873Z,5088
2017-06-15T05:47:12.769Z,5236
2017-06-15T05:47:53.665Z,5292
2017-06-15T05:48:34.563Z,4880
2017-06-15T05:49:15.526Z,5636
2017-06-15T05:49:56.409Z,5792
2017-06-15T05:50:37.308Z,5944
2017-06-15T05:51:18.205Z,6128
2017-06-15T05:51:59.102Z,6216
2017-06-15T05:52:40.020Z,6316
2017-06-15T05:53:20.889Z,6512
2017-06-15T05:54:01.778Z,6676
2017-06-15T05:54:42.674Z,6676
2017-06-15T05:55:23.586Z,6860
2017-06-15T05:56:04.480Z,7192
2017-06-15T05:56:45.375Z,7364
2017-06-15T05:57:26.299Z,7380
2017-06-15T05:58:07.189Z,7408
2017-06-15T05:58:48.080Z,7580
2017-06-15T05:59:28.992Z,7832
2017-06-15T06:00:10.000Z,7596
2017-06-15T06:00:50.895Z,7896
2017-06-15T06:01:31.806Z,7808
2017-06-15T06:02:12.705Z,8100
2017-06-15T06:02:53.628Z,8068
2017-06-15T06:03:34.485Z,8288
2017-06-15T06:04:15.427Z,8536
2017-06-15T06:04:56.284Z,8740
2017-06-15T06:05:37.174Z,8780
2017-06-15T06:06:18.074Z,9076
2017-06-15T06:06:58.969Z,9336
2017-06-15T06:07:39.865Z,9352
2017-06-15T06:08:20.781Z,9516
2017-06-15T06:09:01.666Z,9524
2017-06-15T06:09:42.563Z,9464
2017-06-15T06:10:23.460Z,9308
2017-06-15T06:11:04.353Z,9244
2017-06-15T06:11:45.268Z,9264
2017-06-15T06:12:26.177Z,9624
2017-06-15T06:13:07.095Z,9616
2017-06-15T06:13:47.978Z,9664
2017-06-15T06:14:28.960Z,9712
2017-06-15T06:15:09.818Z,9628
2017-06-15T06:15:50.746Z,9360
2017-06-15T06:16:31.603Z,9424
2017-06-15T06:17:12.501Z,8560
2017-06-15T06:17:53.419Z,8100
2017-06-15T06:18:34.312Z,7892
2017-06-15T06:19:15.228Z,9608
2017-06-15T06:19:56.096Z,9776
2017-06-15T06:20:37.002Z,9652
2017-06-15T06:21:17.911Z,9536
2017-06-15T06:21:58.809Z,9128
2017-06-15T06:22:39.719Z,9052
2017-06-15T06:23:20.612Z,9000
2017-06-15T06:24:01.525Z,9328
2017-06-15T06:24:42.499Z,9316
2017-06-15T06:25:23.399Z,9076
2017-06-15T06:26:04.302Z,9036
2017-06-15T06:28:03.086Z,9132
2017-06-15T06:28:43.987Z,9164
2017-06-15T06:29:24.889Z,8956
2017-06-15T06:30:05.788Z,9284
2017-06-15T06:30:46.693Z,9356
2017-06-15T06:31:27.587Z,9404
2017-06-15T06:32:08.499Z,9656
2017-06-15T06:32:49.430Z,9756
2017-06-15T06:33:30.340Z,9856
2017-06-15T06:34:11.244Z,9784
2017-06-15T06:34:52.140Z,9868
2017-06-15T06:35:33.046Z,9944
2017-06-15T06:36:13.946Z,9904
2017-06-15T06:36:54.853Z,9904
2017-06-15T06:37:35.749Z,9852
2017-06-15T06:38:16.661Z,9996
2017-06-15T06:38:57.554Z,10080
2017-06-15T06:39:38.470Z,10196
2017-06-15T06:40:19.371Z,9980
2017-06-15T06:41:00.297Z,9968
2017-06-15T06:41:41.197Z,9712
2017-06-15T06:42:22.104Z,9812
2017-06-15T06:43:03.011Z,9888
2017-06-15T06:43:43.926Z,10040
2017-06-15T06:44:24.820Z,10272
2017-06-15T06:45:05.724Z,10316
2017-06-15T06:45:46.629Z,10396
2017-06-15T06:47:25.032Z,10172
2017-06-15T06:48:05.986Z,10184
2017-06-15T06:48:46.880Z,10024
2017-06-15T06:49:27.814Z,10248
2017-06-15T06:50:08.717Z,10344
2017-06-15T06:50:49.628Z,10096
2017-06-15T06:51:30.507Z,10008
2017-06-15T06:52:11.423Z,10288
2017-06-15T06:52:52.310Z,10548
2017-06-15T06:53:33.197Z,10664
2017-06-15T06:54:14.127Z,10672
2017-06-15T06:54:55.005Z,10508
2017-06-15T06:55:35.913Z,10672
2017-06-15T06:56:16.812Z,10568
2017-06-15T06:56:57.733Z,10156
2017-06-15T06:57:38.698Z,10540
2017-06-15T06:59:17.130Z,10800
2017-06-15T06:59:58.006Z,10808
2017-06-15T07:00:38.920Z,10360
2017-06-15T07:01:19.826Z,10436
2017-06-15T07:02:00.740Z,10932
2017-06-15T07:02:41.629Z,10840
2017-06-15T07:03:22.523Z,11264
2017-06-15T07:04:03.445Z,11588
2017-06-15T07:04:44.325Z,11796
2017-06-15T07:05:25.236Z,11800
2017-06-15T07:06:06.133Z,11692
2017-06-15T07:06:47.042Z,11748
2017-06-15T07:07:27.949Z,11760
2017-06-15T07:08:08.869Z,11840
2017-06-15T07:08:49.769Z,11880
2017-06-15T07:09:30.678Z,11868
2017-06-15T07:10:11.564Z,11840
2017-06-15T07:10:52.521Z,11808
2017-06-15T07:11:33.431Z,11904
2017-06-15T07:13:32.251Z,11976
2017-06-15T07:14:13.150Z,11916
2017-06-15T07:14:54.123Z,11708
2017-06-15T07:15:35.011Z,11660
2017-06-15T07:16:15.920Z,11528
2017-06-15T07:16:56.832Z,11460
2017-06-15T07:17:37.728Z,11460
2017-06-15T07:18:18.631Z,11172
2017-06-15T07:18:59.542Z,11080
2017-06-15T07:19:40.438Z,11432
2017-06-15T07:20:21.353Z,11464
2017-06-15T07:21:02.266Z,11552
2017-06-15T07:21:43.175Z,12332
2017-06-15T07:22:24.060Z,12392
2017-06-15T07:23:04.957Z,12680
2017-06-15T07:23:45.852Z,13652
2017-06-15T07:24:26.761Z,15168
2017-06-15T07:25:07.683Z,17408
2017-06-15T07:25:48.588Z,30176
2017-06-15T07:26:29.495Z,38944
2017-06-15T07:27:10.395Z,50528
2017-06-15T07:27:51.324Z,56160
2017-06-15T07:28:32.213Z,55552
2017-06-15T07:29:13.136Z,52000
2017-06-15T07:29:54.027Z,48672
2017-06-15T07:30:34.953Z,52000
2017-06-15T07:31:15.848Z,46304
2017-06-15T07:31:56.789Z,49504
2017-06-15T07:32:37.700Z,51168
2017-06-15T07:33:18.600Z,55168
2017-06-15T07:33:59.505Z,55360
2017-06-15T07:34:40.417Z,58592
2017-06-15T07:35:21.319Z,58976
2017-06-15T07:36:02.236Z,58816
2017-06-15T07:36:43.146Z,50720
2017-06-15T07:37:24.045Z,46976
2017-06-15T07:38:04.929Z,46560
2017-06-15T07:40:13.999Z,55904
2017-06-15T07:40:54.902Z,53888
2017-06-15T07:41:35.808Z,52928
2017-06-15T07:42:16.710Z,51424
2017-06-15T07:42:57.628Z,51264
2017-06-15T07:43:38.533Z,53312
2017-06-15T07:44:19.461Z,55808
2017-06-15T07:45:00.353Z,56576
2017-06-15T07:45:41.269Z,57376
2017-06-15T07:46:22.168Z,57024
2017-06-15T07:47:03.078Z,61312
2017-06-15T07:47:44.015Z,61344
2017-06-15T07:48:24.949Z,63648
2017-06-15T07:49:05.825Z,62048
2017-06-15T07:49:46.762Z,53760
2017-06-15T07:50:27.664Z,54208
2017-06-15T07:51:08.580Z,55552
2017-06-15T07:51:49.476Z,54016
2017-06-15T07:52:30.384Z,51552
2017-06-15T07:53:11.279Z,53824
2017-06-15T07:53:52.206Z,53920
2017-06-15T07:54:33.079Z,55200
2017-06-15T07:55:13.974Z,59200
2017-06-15T07:55:54.898Z,58432
2017-06-15T07:56:35.853Z,62592
2017-06-15T07:57:16.767Z,63296
2017-06-15T07:57:57.663Z,62720
2017-06-15T07:58:38.566Z,57632
2017-06-15T07:59:19.480Z,42720
2017-06-15T08:00:00.387Z,28064
2017-06-15T08:00:41.326Z,17664
2017-06-15T08:01:22.242Z,15328
2017-06-15T08:02:03.150Z,14976
2017-06-15T08:02:44.073Z,14720
2017-06-15T08:03:24.983Z,14592
2017-06-15T08:04:05.894Z,14352
2017-06-15T08:04:46.808Z,14228
2017-06-15T08:05:27.715Z,14072
2017-06-15T08:06:08.626Z,14000
2017-06-15T08:06:49.533Z,13780
2017-06-15T08:07:30.442Z,14084
2017-06-15T08:08:11.357Z,13732
2017-06-15T08:08:52.274Z,13528
2017-06-15T08:09:33.176Z,13512
2017-06-15T08:10:14.085Z,13288
2017-06-15T08:10:54.992Z,13376
2017-06-15T08:11:35.877Z,13512
2017-06-15T08:12:16.789Z,13408
2017-06-15T08:12:57.688Z,13132
2017-06-15T08:13:38.607Z,13384
2017-06-15T08:14:19.506Z,13396
2017-06-15T08:15:00.448Z,13572
2017-06-15T08:15:41.357Z,13888
2017-06-15T08:16:22.262Z,14052
2017-06-15T08:17:03.174Z,14816
2017-06-15T08:17:44.082Z,20224
2017-06-15T08:18:24.993Z,34304
2017-06-15T08:19:05.902Z,53088
2017-06-15T08:19:46.816Z,67264
2017-06-15T08:20:27.722Z,63904
2017-06-15T08:21:08.644Z,55552
2017-06-15T08:21:49.550Z,62656
2017-06-15T08:22:30.471Z,66272
2017-06-15T08:23:11.384Z,70432
2017-06-15T08:23:52.308Z,76128
2017-06-15T08:24:33.220Z,76768
2017-06-15T08:25:14.129Z,75904
2017-06-15T08:25:55.035Z,79168
2017-06-15T08:26:35.972Z,89088
2017-06-15T08:27:16.887Z,85856
2017-06-15T08:27:57.790Z,83488
2017-06-15T08:28:38.721Z,81472
2017-06-15T08:29:19.662Z,90400
2017-06-15T08:30:00.565Z,92256
2017-06-15T08:30:41.482Z,90272
2017-06-15T08:31:22.385Z,91488
2017-06-15T08:32:03.313Z,89184
2017-06-15T08:32:44.226Z,87360
2017-06-15T08:33:25.147Z,76736
2017-06-15T08:34:06.057Z,68768
2017-06-15T08:34:46.960Z,61664
2017-06-15T08:35:27.869Z,63616
2017-06-15T08:36:08.799Z,67616
2017-06-15T08:36:49.712Z,67616
2017-06-15T08:37:30.614Z,69312
2017-06-15T08:38:11.522Z,73344
2017-06-15T08:38:52.428Z,75200
2017-06-15T08:39:33.352Z,72672
2017-06-15T08:40:14.251Z,76640
2017-06-15T08:40:55.216Z,86848
2017-06-15T08:41:36.131Z,92544
2017-06-15T08:42:17.030Z,88160
2017-06-15T08:42:57.948Z,94208
2017-06-15T08:43:38.852Z,97888
2017-06-15T08:44:19.774Z,96320
2017-06-15T08:45:00.699Z,95840
2017-06-15T08:45:41.616Z,99296
2017-06-15T08:46:22.536Z,98720
2017-06-15T08:47:03.445Z,96960
2017-06-15T08:47:44.359Z,97152
2017-06-15T08:48:25.265Z,93600
2017-06-15T08:49:06.181Z,86048
2017-06-15T08:49:47.087Z,81888
2017-06-15T08:50:27.999Z,81888
2017-06-15T08:51:08.904Z,82976
2017-06-15T08:51:49.838Z,88832
2017-06-15T08:52:30.758Z,88992
2017-06-15T08:53:11.676Z,86688
2017-06-15T08:53:52.595Z,83744
2017-06-15T08:54:33.502Z,83520
2017-06-15T08:55:14.438Z,83616
2017-06-15T08:55:55.348Z,82528
2017-06-15T08:56:36.250Z,82304
2017-06-15T08:57:17.176Z,84864
2017-06-15T08:57:58.095Z,81600
2017-06-15T08:58:39.030Z,75040
2017-06-15T08:59:19.913Z,85216
2017-06-15T09:00:00.827Z,86656
2017-06-15T09:00:41.732Z,85856
2017-06-15T09:01:22.649Z,86912
2017-06-15T09:02:03.574Z,81792
2017-06-15T09:02:44.485Z,87104
2017-06-15T09:03:25.410Z,90304
2017-06-15T09:04:06.325Z,73344
2017-06-15T09:04:47.238Z,73888
2017-06-15T09:05:28.145Z,72736
2017-06-15T09:06:09.076Z,65856
2017-06-15T09:06:49.999Z,66528
2017-06-15T09:07:30.905Z,71072
2017-06-15T09:08:11.833Z,81120
2017-06-15T09:08:52.740Z,83360
2017-06-15T09:09:33.658Z,73600
2017-06-15T09:10:14.585Z,76416
2017-06-15T09:10:55.511Z,81760
2017-06-15T09:11:36.433Z,78176
2017-06-15T09:12:17.348Z,68576
2017-06-15T09:12:58.315Z,68704
2017-06-15T09:13:39.208Z,61792
2017-06-15T09:14:20.119Z,62944
2017-06-15T09:15:01.042Z,62656
2017-06-15T09:15:41.947Z,61024
2017-06-15T09:16:22.861Z,62176
2017-06-15T09:17:03.774Z,60640
2017-06-15T09:17:44.690Z,60672
2017-06-15T09:18:25.618Z,61664
2017-06-15T09:19:06.527Z,65152
2017-06-15T09:19:47.446Z,70464
2017-06-15T09:20:28.357Z,75744
2017-06-15T09:21:09.281Z,73536
2017-06-15T09:21:50.198Z,81024
2017-06-15T09:22:31.104Z,78560
2017-06-15T09:23:12.017Z,81696
2017-06-15T09:23:52.927Z,79296